Laingsburg, Michigan
Current Conditions -  °F | °C
As of 6:14 AM on Wednesday 26 Nov 2014 (Local Time) from KRNP Reporting Station
Overcast Overcast  
Wind Chill: 29°   Ceiling: 2200
Heat Index: 29°   Visibility: 10mi
Dew Point: 21°   Wind: 3mph
Humidity: 72%   Direction: 10°N
Pressure: 30.18"   Gusts: NA
Location:  42.89°N, 84.35°W
Report Text: KRNP 261114Z AUTO 01003KT 10SM OVC022 M02/M06 A3018 RMK AO2 T10171061
Loading
Personal Weather Stations






























Interactive Weather Map New forecast layout! Learn more

10-Day Weather Forecast

Advertisements
Track Severe Weather on mobile